Time;durP1;ratioP1;P1;durP2;ratioP2;P2;SDS_P1;SDS_P2;PMS_P1;PMS_P2;Temp;Humidity;BMP_temperature;BMP_pressure;BME280_temperature;BME280_humidity;BME280_pressure;Samples;Min_cycle;Max_cycle;Signal;HPM_P1;HPM_P2
2023/10/06 00:01:07;;;;;;;9.70;4.17;;;11.70;75.80;;;;;;5098680;28;21721;-82
2023/10/06 00:03:36;;;;;;;10.43;4.40;;;11.60;75.90;;;;;;5089269;28;21057;-80
2023/10/06 00:06:05;;;;;;;9.17;4.30;;;11.60;75.90;;;;;;5070130;28;21060;-82
2023/10/06 00:08:40;;;;;;;12.77;4.67;;;11.60;75.90;;;;;;5070230;28;20438;-81
2023/10/06 00:11:11;;;;;;;9.93;4.30;;;11.60;75.80;;;;;;5087785;28;20487;-81
2023/10/06 00:13:51;;;;;;;10.93;4.77;;;11.60;75.70;;;;;;5068600;28;20522;-81
2023/10/06 00:16:19;;;;;;;6.70;4.03;;;11.50;75.60;;;;;;5085750;28;20958;-81
2023/10/06 00:18:47;;;;;;;9.73;4.73;;;11.40;75.80;;;;;;5085737;28;20483;-81
2023/10/06 00:21:21;;;;;;;9.37;4.63;;;11.40;75.90;;;;;;5088346;28;20546;-81
2023/10/06 00:23:52;;;;;;;11.33;4.17;;;11.40;75.90;;;;;;5069530;28;20450;-80
2023/10/06 00:26:20;;;;;;;10.80;4.50;;;11.40;76.00;;;;;;5087973;28;20445;-82
2023/10/06 00:28:51;;;;;;;7.97;3.70;;;11.40;76.00;;;;;;5083483;28;20626;-81
2023/10/06 00:31:19;;;;;;;7.60;4.00;;;11.40;76.00;;;;;;5063356;28;20463;-80
2023/10/06 00:33:50;;;;;;;7.83;4.40;;;11.40;76.00;;;;;;5086648;28;20456;-81
2023/10/06 00:36:18;;;;;;;7.63;4.13;;;11.50;76.00;;;;;;5084706;28;20527;-81
2023/10/06 00:38:50;;;;;;;8.77;4.10;;;11.50;76.00;;;;;;5096841;28;20468;-81
2023/10/06 00:41:20;;;;;;;7.40;3.60;;;11.40;75.90;;;;;;5083590;28;20956;-81
2023/10/06 00:43:50;;;;;;;9.77;4.07;;;11.40;75.90;;;;;;5064884;28;20459;-81
2023/10/06 00:46:19;;;;;;;9.43;4.23;;;11.40;75.90;;;;;;5085370;28;20965;-81
2023/10/06 00:48:53;;;;;;;9.27;3.70;;;11.40;75.80;;;;;;5087540;28;20478;-78
2023/10/06 00:51:25;;;;;;;9.20;4.83;;;11.40;75.90;;;;;;5069842;28;20471;-80
2023/10/06 00:53:56;;;;;;;7.30;4.47;;;11.40;75.90;;;;;;5097514;28;20453;-80
2023/10/06 00:56:28;;;;;;;8.50;4.23;;;11.40;75.80;;;;;;5065811;28;20522;-80
2023/10/06 00:58:57;;;;;;;7.47;4.67;;;11.40;75.80;;;;;;5083812;28;20493;-80
2023/10/06 01:01:26;;;;;;;9.00;4.50;;;11.30;75.90;;;;;;5086165;28;20872;-81
2023/10/06 01:04:00;;;;;;;15.67;5.40;;;11.30;76.00;;;;;;5081293;28;20962;-81
2023/10/06 01:06:35;;;;;;;7.97;3.90;;;11.40;75.90;;;;;;5081995;28;20537;-80
2023/10/06 01:09:14;;;;;;;7.90;4.80;;;11.30;75.90;;;;;;5059427;28;21062;-82
2023/10/06 01:11:45;;;;;;;8.30;3.80;;;11.30;75.80;;;;;;5067962;28;21165;-81
2023/10/06 01:14:21;;;;;;;9.17;4.60;;;11.30;75.90;;;;;;5085361;28;20473;-79
2023/10/06 01:16:50;;;;;;;9.40;4.40;;;11.30;75.90;;;;;;5065609;28;20491;-81
2023/10/06 01:19:26;;;;;;;11.80;4.67;;;11.30;75.90;;;;;;5069512;28;20575;-79
2023/10/06 01:21:56;;;;;;;10.30;5.00;;;11.30;75.90;;;;;;5084639;28;20442;-79
2023/10/06 01:24:26;;;;;;;8.63;5.10;;;11.30;76.00;;;;;;5086040;28;20573;-82
2023/10/06 01:26:58;;;;;;;8.03;3.90;;;11.30;76.00;;;;;;5088182;28;20445;-81
2023/10/06 01:29:29;;;;;;;9.10;4.33;;;11.30;76.00;;;;;;5086686;28;20478;-81
2023/10/06 01:31:57;;;;;;;11.47;4.63;;;11.30;76.00;;;;;;5069267;28;20471;-79
2023/10/06 01:34:27;;;;;;;9.83;4.93;;;11.30;76.00;;;;;;5072704;28;20459;-80
2023/10/06 01:36:55;;;;;;;9.03;3.83;;;11.30;75.90;;;;;;5089378;28;20444;-80
2023/10/06 01:39:30;;;;;;;10.20;4.60;;;11.30;75.90;;;;;;5090391;28;20561;-81
2023/10/06 01:42:03;;;;;;;14.20;4.07;;;11.20;75.80;;;;;;5086513;28;20560;-80
2023/10/06 01:44:34;;;;;;;9.23;4.07;;;11.20;75.80;;;;;;5072514;28;20481;-79
2023/10/06 01:47:04;;;;;;;10.40;4.40;;;11.10;75.70;;;;;;5089371;28;20469;-81
2023/10/06 01:49:33;;;;;;;7.57;4.33;;;11.10;75.80;;;;;;5069218;28;20463;-81
2023/10/06 01:52:04;;;;;;;7.83;4.13;;;11.10;75.90;;;;;;5103475;28;21265;-81
2023/10/06 01:54:38;;;;;;;7.40;3.97;;;11.10;75.80;;;;;;5070441;28;20829;-81
2023/10/06 01:57:07;;;;;;;9.03;4.00;;;11.10;75.70;;;;;;5105884;28;20958;-81
2023/10/06 01:59:35;;;;;;;9.60;4.07;;;11.00;75.60;;;;;;5070723;28;20946;-80
2023/10/06 02:02:07;;;;;;;9.17;4.47;;;10.90;75.50;;;;;;5099562;28;20829;-81
2023/10/06 02:04:44;;;;;;;11.47;4.50;;;10.90;75.60;;;;;;5084245;28;20971;-81
2023/10/06 02:07:13;;;;;;;8.73;4.23;;;10.90;75.60;;;;;;5072123;28;20533;-80
2023/10/06 02:09:43;;;;;;;10.87;4.93;;;10.90;75.70;;;;;;5102132;28;20450;-81
2023/10/06 02:12:12;;;;;;;9.10;4.70;;;10.90;75.70;;;;;;5100285;28;20805;-81
2023/10/06 02:14:41;;;;;;;13.67;6.10;;;10.90;75.80;;;;;;5099878;28;20854;-81
2023/10/06 02:17:11;;;;;;;11.20;5.60;;;10.90;75.90;;;;;;5100336;28;20515;-80
2023/10/06 02:19:42;;;;;;;10.03;5.50;;;10.90;75.90;;;;;;5086361;28;20981;-79
2023/10/06 02:22:11;;;;;;;13.13;6.50;;;10.90;75.90;;;;;;5063208;28;20939;-81
2023/10/06 02:24:39;;;;;;;19.37;6.73;;;10.90;76.00;;;;;;5070118;28;20514;-81
2023/10/06 02:27:10;;;;;;;13.90;6.50;;;10.90;76.00;;;;;;5069576;28;20461;-80
2023/10/06 02:29:38;;;;;;;18.23;7.57;;;10.90;76.10;;;;;;5087227;28;20963;-80
2023/10/06 02:32:07;;;;;;;24.53;6.80;;;10.90;76.10;;;;;;5106229;28;20476;-80
2023/10/06 02:34:38;;;;;;;11.60;6.50;;;10.90;76.20;;;;;;5092479;28;20531;-79
2023/10/06 02:37:08;;;;;;;13.77;5.77;;;10.90;76.20;;;;;;5107371;28;20465;-80
2023/10/06 02:39:38;;;;;;;15.00;6.47;;;10.90;76.40;;;;;;5088739;28;20981;-80
2023/10/06 02:42:08;;;;;;;14.77;6.60;;;10.90;76.40;;;;;;5091279;28;20510;-79
2023/10/06 02:44:40;;;;;;;12.43;5.60;;;10.90;76.50;;;;;;5107520;28;20932;-80
2023/10/06 02:47:10;;;;;;;15.73;6.73;;;10.90;76.50;;;;;;5109374;28;20469;-81
2023/10/06 02:49:40;;;;;;;11.57;5.50;;;10.90;76.50;;;;;;5110929;28;20450;-79
2023/10/06 02:52:19;;;;;;;19.97;5.93;;;10.90;76.50;;;;;;5107225;28;20537;-81
2023/10/06 02:54:56;;;;;;;13.40;6.60;;;10.90;76.50;;;;;;5094030;28;20953;-81
2023/10/06 02:57:25;;;;;;;15.77;6.67;;;10.90;76.50;;;;;;5091361;28;20564;-80
2023/10/06 03:00:17;;;;;;;16.20;7.00;;;10.90;76.50;;;;;;5089151;28;20589;-81
2023/10/06 03:02:45;;;;;;;13.50;6.90;;;10.90;76.50;;;;;;5108519;28;20469;-81
2023/10/06 03:05:32;;;;;;;15.67;7.00;;;10.90;76.40;;;;;;5091432;28;20455;-81
2023/10/06 03:08:08;;;;;;;11.63;6.10;;;10.90;76.40;;;;;;5091349;28;20460;-79
2023/10/06 03:10:43;;;;;;;9.30;5.33;;;10.80;76.40;;;;;;5086793;28;20485;-82
2023/10/06 03:13:13;;;;;;;12.27;5.90;;;10.80;76.50;;;;;;5091872;28;20548;-81
2023/10/06 03:15:46;;;;;;;10.93;5.70;;;10.80;76.50;;;;;;5082589;28;20518;-81
2023/10/06 03:18:16;;;;;;;11.00;6.00;;;10.80;76.50;;;;;;5089363;28;20453;-81
2023/10/06 03:20:48;;;;;;;10.13;6.43;;;10.70;76.60;;;;;;5089550;28;20469;-80
2023/10/06 03:23:26;;;;;;;10.37;6.13;;;10.70;76.60;;;;;;5091380;28;21169;-81
2023/10/06 03:25:56;;;;;;;13.47;5.87;;;10.70;76.60;;;;;;5089349;28;20465;-80
2023/10/06 03:28:32;;;;;;;12.33;5.70;;;10.70;76.60;;;;;;5092351;28;20808;-80
2023/10/06 03:31:22;;;;;;;14.23;5.73;;;10.60;76.70;;;;;;5089137;28;20479;-79
2023/10/06 03:33:54;;;;;;;10.63;5.63;;;10.60;76.70;;;;;;5092050;28;20481;-81
2023/10/06 03:36:36;;;;;;;14.00;6.93;;;10.60;76.70;;;;;;5107249;28;20464;-82
2023/10/06 03:39:10;;;;;;;13.30;6.60;;;10.60;76.80;;;;;;5092394;28;20553;-81
2023/10/06 03:41:41;;;;;;;11.10;4.70;;;10.60;76.90;;;;;;5088134;28;20567;-81
2023/10/06 03:44:11;;;;;;;10.17;5.17;;;10.60;76.90;;;;;;5091495;28;20455;-80
2023/10/06 03:46:40;;;;;;;9.77;5.20;;;10.50;76.80;;;;;;5106692;28;20841;-81
2023/10/06 03:49:09;;;;;;;10.00;4.90;;;10.50;76.70;;;;;;5089165;28;20471;-79
2023/10/06 03:51:38;;;;;;;9.03;4.93;;;10.50;76.70;;;;;;5091096;28;20453;-81
2023/10/06 03:54:07;;;;;;;10.53;4.50;;;10.40;76.60;;;;;;5100014;28;20470;-81
2023/10/06 03:56:36;;;;;;;9.87;4.90;;;10.40;76.60;;;;;;5102825;28;20454;-80
2023/10/06 03:59:12;;;;;;;9.67;4.83;;;10.40;76.70;;;;;;5089281;28;20452;-80
2023/10/06 04:01:44;;;;;;;10.90;4.97;;;10.40;76.80;;;;;;5090178;28;20467;-79
2023/10/06 04:04:20;;;;;;;8.20;4.80;;;10.30;76.80;;;;;;5089405;28;21244;-80
2023/10/06 04:06:48;;;;;;;9.47;5.17;;;10.30;76.80;;;;;;5106368;28;20458;-81
2023/10/06 04:09:27;;;;;;;8.17;5.03;;;10.30;76.80;;;;;;5108763;28;20455;-81
2023/10/06 04:11:57;;;;;;;8.77;4.70;;;10.30;76.70;;;;;;5102256;28;20449;-81
2023/10/06 04:14:27;;;;;;;8.80;5.57;;;10.30;76.70;;;;;;5090336;28;20516;-80
2023/10/06 04:16:58;;;;;;;8.40;5.00;;;10.20;76.80;;;;;;5102929;28;20473;-81
2023/10/06 04:19:26;;;;;;;10.47;5.87;;;10.20;76.80;;;;;;5092843;28;20884;-80
2023/10/06 04:21:55;;;;;;;8.30;5.13;;;10.20;76.50;;;;;;5091058;28;20492;-80
2023/10/06 04:24:23;;;;;;;8.90;5.23;;;10.10;76.50;;;;;;5089645;28;20448;-81
2023/10/06 04:26:51;;;;;;;10.33;5.00;;;10.10;76.70;;;;;;5109023;28;21017;-81
2023/10/06 04:29:19;;;;;;;12.50;5.13;;;10.10;76.80;;;;;;5090100;28;20474;-81
2023/10/06 04:31:47;;;;;;;9.20;4.53;;;10.10;76.80;;;;;;5084591;28;20480;-82
2023/10/06 04:34:27;;;;;;;9.23;4.67;;;10.10;76.80;;;;;;5084740;28;20810;-81
2023/10/06 04:36:56;;;;;;;8.07;4.20;;;10.20;76.70;;;;;;5090607;28;20455;-81
2023/10/06 04:39:26;;;;;;;9.07;4.97;;;10.20;76.80;;;;;;5097757;28;20465;-80
2023/10/06 04:41:55;;;;;;;7.93;4.93;;;10.20;76.90;;;;;;5104812;28;20469;-81
2023/10/06 04:44:23;;;;;;;8.50;4.50;;;10.20;76.80;;;;;;5106155;28;20515;-81
2023/10/06 04:46:52;;;;;;;8.87;5.47;;;10.20;76.80;;;;;;5105643;28;20475;-80
2023/10/06 04:49:21;;;;;;;9.50;5.40;;;10.20;76.70;;;;;;5102558;28;20558;-81
2023/10/06 04:51:50;;;;;;;11.93;6.13;;;10.20;76.50;;;;;;5107228;28;20448;-79
2023/10/06 04:54:20;;;;;;;16.50;9.43;;;10.20;76.50;;;;;;5106517;28;20453;-80
2023/10/06 04:56:52;;;;;;;19.23;12.17;;;10.20;76.50;;;;;;5084870;28;20485;-80
2023/10/06 04:59:22;;;;;;;19.33;12.17;;;10.20;76.40;;;;;;5089010;28;20468;-81
2023/10/06 05:01:50;;;;;;;20.53;13.07;;;10.10;76.30;;;;;;5089160;28;20540;-80
2023/10/06 05:04:18;;;;;;;27.53;15.17;;;10.10;76.50;;;;;;5089677;28;20471;-80
2023/10/06 05:06:48;;;;;;;31.73;18.20;;;10.10;76.60;;;;;;5094398;28;20990;-79
2023/10/06 05:09:17;;;;;;;24.57;15.03;;;10.10;76.60;;;;;;5105225;28;20903;-80
2023/10/06 05:11:46;;;;;;;24.40;14.37;;;10.10;76.70;;;;;;5106694;28;20479;-80
2023/10/06 05:14:16;;;;;;;23.20;13.97;;;10.10;76.70;;;;;;5108059;28;20456;-81
2023/10/06 05:16:45;;;;;;;19.40;12.43;;;10.10;76.50;;;;;;5112803;28;20448;-81
2023/10/06 05:19:14;;;;;;;17.73;9.57;;;10.10;76.60;;;;;;5111728;28;21141;-81
2023/10/06 05:21:42;;;;;;;26.33;12.20;;;10.10;76.60;;;;;;5108984;28;20520;-81
2023/10/06 05:24:11;;;;;;;23.53;12.10;;;10.10;76.50;;;;;;5100930;28;20819;-81
2023/10/06 05:26:43;;;;;;;20.80;11.10;;;10.10;76.50;;;;;;5107398;28;20447;-81
2023/10/06 05:29:14;;;;;;;22.13;10.30;;;10.10;76.60;;;;;;5106204;28;20992;-81
2023/10/06 05:31:46;;;;;;;12.93;8.80;;;10.10;76.60;;;;;;5106802;27;20464;-80
2023/10/06 05:34:17;;;;;;;19.13;10.83;;;10.10;76.50;;;;;;5104058;28;20488;-81
2023/10/06 05:36:45;;;;;;;14.20;9.00;;;10.10;76.40;;;;;;5112276;28;20943;-81
2023/10/06 05:39:16;;;;;;;19.93;10.53;;;10.10;76.40;;;;;;5108451;28;20498;-80
2023/10/06 05:41:44;;;;;;;19.63;12.50;;;10.00;76.40;;;;;;5110239;28;20531;-80
2023/10/06 05:44:13;;;;;;;23.23;12.70;;;10.00;76.30;;;;;;5109790;28;20527;-82
2023/10/06 05:46:42;;;;;;;16.10;11.20;;;10.00;76.30;;;;;;5110236;28;20528;-81
2023/10/06 05:49:11;;;;;;;18.10;10.63;;;10.00;76.40;;;;;;5109660;28;20957;-81
2023/10/06 05:51:39;;;;;;;18.90;10.00;;;10.00;76.50;;;;;;5106547;28;20453;-81
2023/10/06 05:54:21;;;;;;;18.00;10.83;;;10.00;76.50;;;;;;5097740;28;20503;-81
2023/10/06 05:56:53;;;;;;;17.80;9.90;;;10.00;76.50;;;;;;5107195;28;20552;-80
2023/10/06 05:59:21;;;;;;;18.13;10.67;;;10.00;76.50;;;;;;5108437;28;20467;-80
2023/10/06 06:01:56;;;;;;;18.07;11.13;;;10.00;76.50;;;;;;5088736;28;20504;-80
2023/10/06 06:04:28;;;;;;;16.73;9.30;;;9.90;76.50;;;;;;5089652;28;20463;-79
2023/10/06 06:06:56;;;;;;;17.53;8.37;;;9.90;76.50;;;;;;5106012;28;20457;-81
2023/10/06 06:09:27;;;;;;;31.63;9.50;;;9.90;76.50;;;;;;5090284;28;20456;-80
2023/10/06 06:11:55;;;;;;;17.63;9.83;;;9.90;76.50;;;;;;5109149;28;20473;-80
2023/10/06 06:14:23;;;;;;;20.03;12.40;;;9.90;76.60;;;;;;5110581;28;20551;-80
2023/10/06 06:16:52;;;;;;;31.63;13.63;;;9.80;76.70;;;;;;5092662;28;20532;-81
2023/10/06 06:19:20;;;;;;;19.53;12.83;;;9.80;76.70;;;;;;5091482;28;20460;-79
2023/10/06 06:21:49;;;;;;;20.70;13.17;;;9.80;76.70;;;;;;5107909;28;20472;-80
2023/10/06 06:24:21;;;;;;;20.50;12.87;;;9.70;76.90;;;;;;5111450;28;20482;-81
2023/10/06 06:26:51;;;;;;;29.63;19.60;;;9.80;77.00;;;;;;5088126;28;20472;-81
2023/10/06 06:29:19;;;;;;;19.33;13.50;;;9.80;77.10;;;;;;5092167;28;20479;-80
2023/10/06 06:31:49;;;;;;;18.03;12.00;;;9.80;77.30;;;;;;5091960;28;20479;-79
2023/10/06 06:34:17;;;;;;;22.80;15.03;;;9.90;77.50;;;;;;5089680;28;20453;-81
2023/10/06 06:36:47;;;;;;;20.00;13.43;;;9.90;77.30;;;;;;5110459;28;20572;-81
2023/10/06 06:39:16;;;;;;;19.00;11.73;;;9.90;77.30;;;;;;5110893;28;20518;-79
2023/10/06 06:41:45;;;;;;;31.47;14.67;;;9.90;77.30;;;;;;5089961;28;20475;-78
2023/10/06 06:44:15;;;;;;;38.67;16.70;;;9.90;77.40;;;;;;5092483;28;20478;-81
2023/10/06 06:46:43;;;;;;;21.90;14.10;;;9.90;77.30;;;;;;5105172;28;20819;-80
2023/10/06 06:49:11;;;;;;;21.77;14.67;;;9.90;77.60;;;;;;5102721;28;20527;-81
2023/10/06 06:51:40;;;;;;;31.10;16.47;;;9.90;77.80;;;;;;5110323;28;20536;-80
2023/10/06 06:54:10;;;;;;;23.27;15.17;;;10.00;78.00;;;;;;5092040;28;20448;-80
2023/10/06 06:56:38;;;;;;;21.30;13.83;;;10.00;78.00;;;;;;5109823;28;20740;-79
2023/10/06 06:59:07;;;;;;;20.30;12.90;;;10.10;78.20;;;;;;5107431;28;20864;-79
2023/10/06 07:01:41;;;;;;;19.97;10.90;;;10.20;78.30;;;;;;5095334;28;20824;-80
2023/10/06 07:04:09;;;;;;;18.30;8.70;;;10.30;78.20;;;;;;5088041;28;20461;-79
2023/10/06 07:06:37;;;;;;;13.33;7.53;;;10.40;78.20;;;;;;5074864;28;20459;-81
2023/10/06 07:09:12;;;;;;;9.37;6.03;;;10.50;78.40;;;;;;5071980;28;20462;-81
2023/10/06 07:11:42;;;;;;;12.00;5.93;;;10.50;78.50;;;;;;5072154;28;20796;-81
2023/10/06 07:14:13;;;;;;;10.77;6.13;;;10.60;78.50;;;;;;5086046;28;20911;-81
2023/10/06 07:16:43;;;;;;;10.43;6.43;;;10.70;78.40;;;;;;5087329;28;20444;-80
2023/10/06 07:19:14;;;;;;;14.90;7.50;;;10.80;78.50;;;;;;5084633;28;20528;-80
2023/10/06 07:21:43;;;;;;;12.90;6.90;;;10.80;78.50;;;;;;5087162;28;21003;-80
2023/10/06 07:24:13;;;;;;;12.47;6.53;;;10.90;78.60;;;;;;5071909;28;20460;-82
2023/10/06 07:26:42;;;;;;;11.90;7.00;;;10.90;78.60;;;;;;5087570;28;20481;-80
2023/10/06 07:29:10;;;;;;;22.13;9.27;;;11.00;78.70;;;;;;5085196;28;20453;-82
2023/10/06 07:31:39;;;;;;;13.80;8.30;;;11.00;78.70;;;;;;5091573;28;20461;-81
2023/10/06 07:34:08;;;;;;;15.70;9.57;;;11.00;78.70;;;;;;5103274;28;20482;-81
2023/10/06 07:36:38;;;;;;;27.30;9.77;;;11.10;78.90;;;;;;5093530;28;20503;-82
2023/10/06 07:39:08;;;;;;;13.03;8.07;;;11.10;79.00;;;;;;5097575;28;20548;-81
2023/10/06 07:41:37;;;;;;;17.20;9.80;;;11.10;79.00;;;;;;5089281;28;20448;-79
2023/10/06 07:44:06;;;;;;;15.70;9.57;;;11.20;79.10;;;;;;5095023;28;20573;-81
2023/10/06 07:46:34;;;;;;;13.80;8.30;;;11.20;79.20;;;;;;5093861;28;20462;-79
2023/10/06 07:49:02;;;;;;;14.90;10.90;;;11.20;79.30;;;;;;5096207;28;21022;-80
2023/10/06 07:51:34;;;;;;;13.53;10.00;;;11.30;79.30;;;;;;5071965;28;20517;-80
2023/10/06 07:54:02;;;;;;;14.73;10.23;;;11.30;79.40;;;;;;5094667;28;20452;-81
2023/10/06 07:56:30;;;;;;;14.33;9.57;;;11.30;79.50;;;;;;5092439;28;20543;-78
2023/10/06 07:58:58;;;;;;;14.00;9.17;;;11.40;79.60;;;;;;5075558;28;20833;-80
2023/10/06 08:01:27;;;;;;;12.80;9.83;;;11.50;79.60;;;;;;5102318;28;21054;-79
2023/10/06 08:03:55;;;;;;;17.30;11.27;;;11.50;79.70;;;;;;5086688;28;20546;-80
2023/10/06 08:06:24;;;;;;;16.97;11.60;;;11.50;79.80;;;;;;5109506;28;20463;-82
2023/10/06 08:08:54;;;;;;;17.33;11.60;;;11.50;79.90;;;;;;5109848;28;20442;-79
2023/10/06 08:11:23;;;;;;;17.53;10.97;;;11.60;80.00;;;;;;5087415;28;20545;-78
2023/10/06 08:13:52;;;;;;;20.30;12.20;;;11.60;80.10;;;;;;5107478;28;20444;-80
2023/10/06 08:16:20;;;;;;;19.37;12.70;;;11.70;80.20;;;;;;5107183;28;20600;-79
2023/10/06 08:18:48;;;;;;;23.13;12.90;;;11.70;80.30;;;;;;5083991;28;20451;-79
2023/10/06 08:21:16;;;;;;;15.80;11.20;;;11.80;80.40;;;;;;5107961;28;20523;-79
2023/10/06 08:23:46;;;;;;;16.40;10.80;;;11.80;80.50;;;;;;5109208;28;20937;-79
2023/10/06 08:26:15;;;;;;;16.23;10.83;;;11.90;80.70;;;;;;5107209;28;20541;-80
2023/10/06 08:28:45;;;;;;;17.17;10.53;;;11.90;80.80;;;;;;5105214;28;20444;-79
2023/10/06 08:31:19;;;;;;;16.87;10.50;;;12.00;80.80;;;;;;5088533;28;20471;-78
2023/10/06 08:33:47;;;;;;;20.97;10.53;;;12.00;81.10;;;;;;5090969;28;20955;-80
2023/10/06 08:36:16;;;;;;;15.87;10.07;;;12.00;81.20;;;;;;5102814;28;20466;-80
2023/10/06 08:38:46;;;;;;;17.50;10.70;;;12.10;81.40;;;;;;5108442;28;20449;-80
2023/10/06 08:41:23;;;;;;;16.80;10.43;;;12.20;81.40;;;;;;5107686;28;20812;-80
2023/10/06 08:43:53;;;;;;;19.23;11.13;;;12.20;81.50;;;;;;5108294;28;20516;-81
2023/10/06 08:46:22;;;;;;;15.70;9.67;;;12.30;81.60;;;;;;5088555;28;20463;-80
2023/10/06 08:48:51;;;;;;;21.20;11.80;;;12.30;81.60;;;;;;5108091;28;20436;-80
2023/10/06 08:51:25;;;;;;;21.03;13.70;;;12.40;81.60;;;;;;5106859;28;20477;-82
2023/10/06 08:53:56;;;;;;;21.40;12.30;;;12.50;81.80;;;;;;5104800;28;20973;-81
2023/10/06 08:56:25;;;;;;;20.60;13.67;;;12.50;81.90;;;;;;5106550;28;20461;-80
2023/10/06 08:58:54;;;;;;;23.27;13.17;;;12.60;82.00;;;;;;5108043;28;20459;-81
2023/10/06 09:01:29;;;;;;;25.57;14.43;;;12.60;82.10;;;;;;5092444;28;20523;-81
2023/10/06 09:04:03;;;;;;;20.30;13.97;;;12.70;82.20;;;;;;5080611;28;20473;-80
2023/10/06 09:06:31;;;;;;;22.47;13.50;;;12.80;82.40;;;;;;5088001;28;20808;-81
2023/10/06 09:08:59;;;;;;;24.03;13.73;;;12.90;82.30;;;;;;5081001;28;20454;-81
2023/10/06 09:11:41;;;;;;;19.47;13.47;;;13.00;82.40;;;;;;5086316;28;20455;-80
2023/10/06 09:14:11;;;;;;;20.30;13.50;;;13.10;82.50;;;;;;5085330;28;20531;-80
2023/10/06 09:16:49;;;;;;;22.93;14.43;;;13.10;82.50;;;;;;5085608;28;20460;-79
2023/10/06 09:19:18;;;;;;;19.90;12.80;;;13.20;82.70;;;;;;5084641;28;20468;-79
2023/10/06 09:22:01;;;;;;;14.70;11.00;;;13.30;82.80;;;;;;5069681;28;20463;-81
2023/10/06 09:24:29;;;;;;;16.87;11.60;;;13.40;83.10;;;;;;5069642;28;20884;-81
2023/10/06 09:26:59;;;;;;;20.07;11.83;;;13.50;83.10;;;;;;5070547;28;20458;-81
2023/10/06 09:29:32;;;;;;;19.47;12.17;;;13.60;83.00;;;;;;5086347;28;20445;-81
2023/10/06 09:32:04;;;;;;;19.73;12.80;;;13.70;83.20;;;;;;5085824;28;21190;-80
2023/10/06 09:34:33;;;;;;;22.40;13.20;;;13.70;83.30;;;;;;5086518;28;20457;-80
2023/10/06 09:37:18;;;;;;;19.00;11.77;;;13.90;83.30;;;;;;5103056;28;20553;-80
2023/10/06 09:39:56;;;;;;;18.37;12.17;;;14.00;83.40;;;;;;5086560;28;20525;-81
2023/10/06 09:42:29;;;;;;;17.27;10.70;;;14.00;83.20;;;;;;5096543;28;21357;-80
2023/10/06 09:45:07;;;;;;;21.70;11.10;;;14.10;83.20;;;;;;5086932;28;20565;-80
2023/10/06 09:47:37;;;;;;;20.43;9.67;;;14.20;83.20;;;;;;5086434;28;21064;-81
2023/10/06 09:50:08;;;;;;;18.10;9.30;;;14.20;83.10;;;;;;5084621;28;20537;-79
2023/10/06 09:52:42;;;;;;;15.47;8.50;;;14.30;83.20;;;;;;5084248;28;20454;-81
2023/10/06 09:55:11;;;;;;;17.73;9.67;;;14.40;83.30;;;;;;5090096;28;20529;-81
2023/10/06 09:57:43;;;;;;;16.83;8.40;;;14.50;83.30;;;;;;5090930;28;20533;-80
2023/10/06 10:00:16;;;;;;;15.33;7.27;;;14.60;83.30;;;;;;5089082;28;20533;-82
2023/10/06 10:02:45;;;;;;;14.77;6.70;;;14.60;83.20;;;;;;5090139;28;20535;-82
2023/10/06 10:05:18;;;;;;;11.97;4.87;;;14.70;83.00;;;;;;5090690;28;20466;-78
2023/10/06 10:07:48;;;;;;;14.20;5.43;;;14.80;82.80;;;;;;5083781;28;20455;-79
2023/10/06 10:10:22;;;;;;;11.63;4.57;;;14.90;82.70;;;;;;5088112;28;20874;-81
2023/10/06 10:13:26;;;;;;;9.47;3.93;;;14.90;82.50;;;;;;5066694;28;20456;-80
2023/10/06 10:16:09;;;;;;;16.00;4.50;;;15.00;82.30;;;;;;5087309;28;21288;-79
2023/10/06 10:18:40;;;;;;;10.93;4.30;;;15.10;82.00;;;;;;5091343;28;20466;-81
2023/10/06 10:21:11;;;;;;;10.20;4.57;;;15.20;81.70;;;;;;5082723;28;20476;-80
2023/10/06 10:23:40;;;;;;;13.00;4.30;;;15.20;81.50;;;;;;5088803;28;20558;-80
2023/10/06 10:26:18;;;;;;;10.10;4.03;;;15.30;81.40;;;;;;5086691;28;20480;-79
2023/10/06 10:29:30;;;;;;;12.57;4.77;;;15.30;81.20;;;;;;5071472;28;20549;-81
2023/10/06 10:32:06;;;;;;;14.87;4.87;;;15.40;81.00;;;;;;5083263;28;20472;-81
2023/10/06 10:34:35;;;;;;;11.73;5.53;;;15.40;81.10;;;;;;5090017;28;20459;-79
2023/10/06 10:37:24;;;;;;;10.43;4.60;;;15.50;81.00;;;;;;5069021;28;20468;-81
2023/10/06 10:39:55;;;;;;;12.00;5.03;;;15.50;80.70;;;;;;5088267;28;21097;-80
2023/10/06 10:42:39;;;;;;;11.23;4.90;;;15.60;80.80;;;;;;5085611;28;21118;-80
2023/10/06 10:45:34;;;;;;;13.93;4.93;;;15.60;80.40;;;;;;5088802;28;20892;-80
2023/10/06 10:48:13;;;;;;;13.60;5.03;;;15.60;80.40;;;;;;5074761;28;20530;-80
2023/10/06 10:51:02;;;;;;;15.17;6.23;;;15.70;80.30;;;;;;5085337;28;20947;-80
2023/10/06 10:53:34;;;;;;;13.87;6.57;;;15.70;80.10;;;;;;5084329;28;20541;-81
2023/10/06 10:56:03;;;;;;;15.53;7.57;;;15.70;80.20;;;;;;5087067;28;20463;-80
2023/10/06 10:58:55;;;;;;;19.23;6.57;;;15.80;80.10;;;;;;5090695;28;20484;-78
2023/10/06 11:01:32;;;;;;;16.97;7.30;;;15.80;79.90;;;;;;5087843;28;21043;-81
2023/10/06 11:04:29;;;;;;;14.20;6.83;;;15.80;79.90;;;;;;5088288;28;20990;-80
2023/10/06 11:07:01;;;;;;;14.83;7.20;;;15.80;79.80;;;;;;5086122;28;20449;-82
2023/10/06 11:09:30;;;;;;;16.70;7.40;;;15.80;79.90;;;;;;5084670;28;20437;-82
2023/10/06 11:11:59;;;;;;;16.20;7.20;;;15.80;79.80;;;;;;5088378;28;20461;-81
2023/10/06 11:14:49;;;;;;;21.80;7.77;;;15.80;79.80;;;;;;5072074;28;20872;-80
2023/10/06 11:17:23;;;;;;;16.50;7.63;;;15.90;79.80;;;;;;5085511;28;20489;-82
2023/10/06 11:20:08;;;;;;;20.77;7.77;;;15.90;79.70;;;;;;5088673;28;20441;-80
2023/10/06 11:22:37;;;;;;;14.23;6.57;;;16.00;79.60;;;;;;5089541;28;20444;-78
2023/10/06 11:25:10;;;;;;;19.40;6.73;;;16.00;79.60;;;;;;5071890;28;20519;-80
2023/10/06 11:27:39;;;;;;;13.03;5.50;;;16.00;79.70;;;;;;5088016;28;20556;-82
2023/10/06 11:30:14;;;;;;;13.13;6.17;;;16.10;79.50;;;;;;5087680;28;20453;-80
2023/10/06 11:32:47;;;;;;;16.20;5.30;;;16.10;79.50;;;;;;5107629;28;20468;-82
2023/10/06 11:35:15;;;;;;;10.40;5.50;;;16.20;79.50;;;;;;5088197;28;20555;-78
2023/10/06 11:37:43;;;;;;;12.73;5.87;;;16.20;79.50;;;;;;5107470;28;20462;-79
2023/10/06 11:40:12;;;;;;;12.40;6.20;;;16.30;79.30;;;;;;5106094;28;20535;-77
2023/10/06 11:42:41;;;;;;;10.57;4.87;;;16.30;79.20;;;;;;5105194;28;20517;-79
2023/10/06 11:45:25;;;;;;;15.40;6.20;;;16.40;79.20;;;;;;5105758;28;20950;-80
2023/10/06 11:47:55;;;;;;;13.13;5.57;;;16.50;79.00;;;;;;5110697;28;20957;-80
2023/10/06 11:50:25;;;;;;;15.13;5.87;;;16.50;78.80;;;;;;5109525;28;20538;-79
2023/10/06 11:52:55;;;;;;;15.73;6.20;;;16.50;78.60;;;;;;5091899;28;20444;-79
2023/10/06 11:55:30;;;;;;;11.80;5.43;;;16.50;78.50;;;;;;5108850;28;20539;-80
2023/10/06 11:58:03;;;;;;;10.63;4.90;;;16.60;78.20;;;;;;5106280;28;20495;-80
2023/10/06 12:00:40;;;;;;;17.63;6.77;;;16.60;78.00;;;;;;5099749;28;20503;-79
2023/10/06 12:03:11;;;;;;;18.07;6.10;;;16.60;78.00;;;;;;5083491;28;20444;-80
2023/10/06 12:05:42;;;;;;;11.37;5.20;;;16.70;77.80;;;;;;5084592;28;20483;-80
2023/10/06 12:08:14;;;;;;;19.90;7.93;;;16.80;77.60;;;;;;5090910;28;20456;-80
2023/10/06 12:10:50;;;;;;;17.60;5.30;;;16.80;77.40;;;;;;5086054;28;20459;-79
2023/10/06 12:13:18;;;;;;;14.10;5.10;;;16.80;77.10;;;;;;5082270;28;20463;-80
2023/10/06 12:15:47;;;;;;;11.57;4.60;;;16.80;76.90;;;;;;5084008;28;20457;-79
2023/10/06 12:18:17;;;;;;;13.67;5.57;;;16.90;76.60;;;;;;5087171;28;20449;-79
2023/10/06 12:20:45;;;;;;;15.20;5.30;;;16.90;76.50;;;;;;5084082;28;20461;-79
2023/10/06 12:23:14;;;;;;;13.83;5.80;;;16.90;76.40;;;;;;5087467;28;20923;-80
2023/10/06 12:25:42;;;;;;;11.10;4.37;;;17.00;76.20;;;;;;5093848;28;20494;-80
2023/10/06 12:28:14;;;;;;;11.53;4.23;;;17.00;76.00;;;;;;5079187;28;20465;-81
2023/10/06 12:30:42;;;;;;;12.00;4.50;;;17.00;75.90;;;;;;5084468;28;20556;-79
2023/10/06 12:33:11;;;;;;;14.37;4.33;;;17.10;75.70;;;;;;5080734;28;20461;-80
2023/10/06 12:35:40;;;;;;;21.73;5.73;;;17.10;75.60;;;;;;5085039;28;21005;-79
2023/10/06 12:38:08;;;;;;;13.53;4.50;;;17.10;75.60;;;;;;5087343;28;20969;-80
2023/10/06 12:40:38;;;;;;;10.97;4.90;;;17.20;75.40;;;;;;5086914;28;20538;-80
2023/10/06 12:43:07;;;;;;;14.27;4.90;;;17.20;75.10;;;;;;5088575;28;20510;-79
2023/10/06 12:45:36;;;;;;;13.10;5.00;;;17.20;75.10;;;;;;5084380;28;20581;-79
2023/10/06 12:48:07;;;;;;;10.87;3.97;;;17.20;74.90;;;;;;5088096;28;20473;-80
2023/10/06 12:50:40;;;;;;;14.33;4.83;;;17.20;74.70;;;;;;5085462;28;20457;-80
2023/10/06 12:53:12;;;;;;;11.87;4.60;;;17.20;74.70;;;;;;5088133;28;20452;-80
2023/10/06 12:55:42;;;;;;;12.70;4.97;;;17.30;74.40;;;;;;5084287;28;20475;-81
2023/10/06 12:58:15;;;;;;;12.87;4.90;;;17.30;74.30;;;;;;5089202;28;20471;-79